Classifiche di sempre
Migliori tempi personali validi di team tra tutti gli eventi e le stagioni. Ogni team compare una sola volta per divisione.
Cerca per nome e apri la pagina in cui è classificato questo record di divisione.
137,321 team in classifica
| Pos. | Pos. AG | Team | Nazionalità | Categoria età | TempoMiglior tempo | Distacco |
|---|---|---|---|---|---|---|
| 129251 | #9534 | Tim Steck & Noah BeerliSUI · M 16-24 · AG #9534 | SUI | M 16-24 | 1:40:58 | +53:18 |
| 129252 | #15176 | Charley Law & Dewald WassermanM 35-39 · AG #15176 | -- | M 35-39 | 1:40:58 | +53:18 |
| 129253 | #46638 | Kai Ebert & Christisn KremeyerGER · M 30-34 · AG #46638 | GER | M 30-34 | 1:40:58 | +53:18 |
| 129254 | #46639 | Jasper Paijens & Rogier AchterbergNED · M 30-34 · AG #46639 | NED | M 30-34 | 1:40:58 | +53:18 |
| 129255 | #15177 | Dylan Thompson & Robert OsborneGBR · M 35-39 · AG #15177 | GBR | M 35-39 | 1:40:58 | +53:18 |
| 129256 | #16569 | Florian Lemke & Ismail ÖnderGER · M 25-29 · AG #16569 | GER | M 25-29 | 1:40:58 | +53:18 |
| 129257 | #9535 | Eduardo Camarena & Andres GarciaMEX · M 16-24 · AG #9535 | MEX | M 16-24 | 1:40:58 | +53:18 |
| 129258 | #3994 | César Garrido & Ildefonso GarridoMEX · M 45-49 · AG #3994 | MEX | M 45-49 | 1:40:59 | +53:19 |
| 129259 | #18332 | Dave THEOBALD & Phil CAMPBELLNZL · M 40-44 · AG #18332 | NZL | M 40-44 | 1:40:59 | +53:19 |
| 129260 | -- | Konstantin Pozzi & Marcel RilliGER · M MU29 | GER | M MU29 | 1:40:59 | +53:19 |
| 129261 | #46640 | Ryan Maddox & Paul MaddoxGBR · M 30-34 · AG #46640 | GBR | M 30-34 | 1:40:59 | +53:19 |
| 129262 | #18333 | Tyler Bartlett & Fernando Serrano GarciaM 40-44 · AG #18333 | -- | M 40-44 | 1:40:59 | +53:19 |
| 129263 | #9536 | Chaitanya Manam & Ashwin SurapaneniUSA · M 16-24 · AG #9536 | USA | M 16-24 | 1:40:59 | +53:19 |
| 129264 | #46641 | Adrian Möss & Michael KochGER · M 30-34 · AG #46641 | GER | M 30-34 | 1:40:59 | +53:19 |
| 129265 | #46642 | Deneney Brekelmans & Mike BromNED · M 30-34 · AG #46642 | NED | M 30-34 | 1:40:59 | +53:19 |
| 129266 | #9537 | Guillermo Emiliano Guajardo Suárez & Diego Emilio Leal TorresMEX · M 16-24 · AG #9537 | MEX | M 16-24 | 1:40:59 | +53:19 |
| 129267 | #18334 | Nicolas Mioch & Anthony RodriguezFRA · M 40-44 · AG #18334 | FRA | M 40-44 | 1:41:00 | +53:20 |
| 129268 | #46643 | Corentin DEGRYSE & Léo ADAMFRA · M 30-34 · AG #46643 | FRA | M 30-34 | 1:41:00 | +53:20 |
| 129269 | #18335 | Sébastien Pillon & François ModaveBEL · M 40-44 · AG #18335 | BEL | M 40-44 | 1:41:00 | +53:20 |
| 129270 | #9538 | Alex Tse & Justin ManHKG · M 16-24 · AG #9538 | HKG | M 16-24 | 1:41:00 | +53:20 |
| 129271 | #18336 | Rene Legien & Rene Legien & Mike Legien & Mike LegienGER · M 40-44 · AG #18336 | GER | M 40-44 | 1:41:00 | +53:20 |
| 129272 | -- | Mats Stienen & Ryan DemarteauNED · M | NED | -- | 1:41:00 | +53:20 |
| 129273 | #18337 | Anthony Mcdermott & Fergal BeaconIRL · M 40-44 · AG #18337 | IRL | M 40-44 | 1:41:00 | +53:20 |
| 129274 | #46644 | Hunter Mcanally & Grant MooreUSA · M 30-34 · AG #46644 | USA | M 30-34 | 1:41:00 | +53:20 |
| 129275 | #46645 | Archimedes Tobias & Alex WongHKG · M 30-34 · AG #46645 | HKG | M 30-34 | 1:41:00 | +53:20 |
Pagina 5,171 di 5,493